Ty Lotus — DSNU7 — position and weather

sailwx.info

Track history (hours):
 
Tides and Currents Weather Stations Pressure Air Temp Water Temp Dewpoint Dewpoint Depression Visibility Wind Speed Wind Dir Waves Ship Positions

Ty Lotus

Last reported at 2014-Aug-15 10:29 UTC. Time now 2014-Aug-23 17:24 UTC.
Position N 34°37' E 134°58'.
Warning: this ship's position is 8 days out of date.

Length 82 m; draft 5 m.

Type: Cargo ship. MMSI: 440324000.

Date/timePositionNaut miles runAvg speedWind from/ knotsBaromVisibWave heightAir tempDewpointWater temp
2014-Aug-15 10:29N 34°37' E 134°58'7 8.0
2014-Aug-15 09:33N 34°36' E 135°07'8 7.6
2014-Aug-15 08:33N 34°40' E 135°15'3 2.5
2014-Aug-15 07:30N 34°42' E 135°13'0 0.0
2014-Aug-15 06:18N 34°42' E 135°13'0 0.0
2014-Aug-15 05:30N 34°42' E 135°13'0 0.0
2014-Aug-15 04:18N 34°42' E 135°13'0 0.0
2014-Aug-15 03:24N 34°42' E 135°13'0 0.0
2014-Aug-15 02:30N 34°42' E 135°13'0 0.0
2014-Aug-15 01:30N 34°42' E 135°13'0 0.0
2014-Aug-15 00:18N 34°42' E 135°13'0 0.0
2014-Aug-14 23:30N 34°42' E 135°13'0 0.0
2014-Aug-14 22:30N 34°42' E 135°13'5 4.9
2014-Aug-14 21:34N 34°38' E 135°17'1 1.4
2014-Aug-14 20:30N 34°39' E 135°18'0 0.0
2014-Aug-14 19:30N 34°39' E 135°18'0 0.1
2014-Aug-14 18:30N 34°39' E 135°18'0 0.0
2014-Aug-14 17:30N 34°39' E 135°18'0 0.0
2014-Aug-14 16:30N 34°39' E 135°18'0 0.0
2014-Aug-14 15:12N 34°39' E 135°18'0 0.1
2014-Aug-14 14:30N 34°39' E 135°18'0 0.0
2014-Aug-14 13:24N 34°39' E 135°18'0 0.1
2014-Aug-14 12:30N 34°39' E 135°18'0 0.1
2014-Aug-14 11:18N 34°39' E 135°18'0 0.0
2014-Aug-14 10:30N 34°39' E 135°18'0 0.0
2014-Aug-14 09:30N 34°39' E 135°18'0 0.0
2014-Aug-14 08:30N 34°39' E 135°18'0 0.0
2014-Aug-14 07:30N 34°39' E 135°18'0 0.0
2014-Aug-14 06:30N 34°39' E 135°18'2 2.5
2014-Aug-14 05:33N 34°37' E 135°20'4 3.3
2014-Aug-14 04:18N 34°38' E 135°25'0 0.0
2014-Aug-14 03:30N 34°38' E 135°25'0 0.0
2014-Aug-14 01:18N 34°38' E 135°25'0 0.0
2014-Aug-14 00:24N 34°38' E 135°25'0 0.0
2014-Aug-13 23:24N 34°38' E 135°25'0 0.0
2014-Aug-13 22:24N 34°38' E 135°25'3 3.0
2014-Aug-13 21:33N 34°37' E 135°22'9 8.5
2014-Aug-13 20:33N 34°31' E 135°16'9 8.6
2014-Aug-13 19:33N 34°24' E 135°09'  
2014-Aug-10 04:33N 35°40' E 139°58'0 0.0
2014-Aug-10 03:30N 35°40' E 139°58'0 0.0
2014-Aug-10 02:27N 35°40' E 139°58'0 0.0
2014-Aug-10 01:30N 35°40' E 139°58'0 0.0
2014-Aug-10 00:33N 35°40' E 139°58'0 0.0
2014-Aug-09 23:33N 35°40' E 139°58'0 0.0
2014-Aug-09 22:30N 35°40' E 139°58'0 0.0
2014-Aug-09 21:33N 35°40' E 139°58'0 0.0
2014-Aug-09 20:33N 35°40' E 139°58'0 0.0
2014-Aug-09 19:27N 35°40' E 139°58'0 0.0
2014-Aug-09 18:33N 35°40' E 139°58'0 0.0
2014-Aug-09 17:21N 35°40' E 139°58'0 0.0
2014-Aug-09 16:33N 35°40' E 139°58'0 0.0
2014-Aug-09 15:25N 35°40' E 139°58'0 0.0
2014-Aug-09 14:31N 35°40' E 139°58'0 0.0
2014-Aug-09 13:22N 35°40' E 139°58'0 0.0
2014-Aug-09 12:28N 35°40' E 139°58'0 0.0
2014-Aug-09 11:25N 35°40' E 139°58'0 0.0
2014-Aug-09 10:25N 35°40' E 139°58'0 0.0
2014-Aug-09 09:31N 35°40' E 139°58'0 0.0
2014-Aug-09 08:28N 35°40' E 139°58'0 0.0
2014-Aug-09 07:31N 35°40' E 139°58'0 0.0
2014-Aug-09 06:32N 35°40' E 139°58'0 0.4
2014-Aug-09 05:34N 35°40' E 139°59'4 3.5
2014-Aug-09 04:27N 35°36' E 139°58'0 0.0
2014-Aug-09 03:33N 35°36' E 139°58'0 0.0
2014-Aug-09 02:33N 35°36' E 139°58'0 0.0
2014-Aug-09 01:33N 35°36' E 139°58'0 0.0
2014-Aug-09 00:33N 35°36' E 139°58'0 0.0
2014-Aug-08 23:33N 35°36' E 139°58'0 0.0
2014-Aug-08 22:33N 35°36' E 139°58'0 0.0
2014-Aug-08 21:33N 35°36' E 139°58'0 0.0
2014-Aug-08 20:33N 35°36' E 139°58'0 0.0
2014-Aug-08 19:27N 35°36' E 139°58'0 0.0
2014-Aug-08 18:30N 35°36' E 139°58'0 0.1
2014-Aug-08 17:33N 35°36' E 139°58'0 0.0
2014-Aug-08 16:30N 35°36' E 139°58'0 0.0
2014-Aug-08 15:21N 35°36' E 139°58'0 0.1
2014-Aug-08 14:30N 35°36' E 139°58'0 0.0
2014-Aug-08 13:33N 35°36' E 139°58'0 0.0
2014-Aug-08 12:33N 35°36' E 139°58'0 0.0
2014-Aug-08 11:24N 35°36' E 139°58'0 0.0
2014-Aug-08 10:27N 35°36' E 139°58'0 0.0
2014-Aug-08 09:30N 35°36' E 139°58'0 0.0
2014-Aug-08 08:33N 35°37' E 139°58'0 0.0
2014-Aug-08 07:24N 35°37' E 139°58'0 0.1
2014-Aug-08 06:27N 35°37' E 139°58'0 0.0
2014-Aug-08 05:30N 35°37' E 139°58'0 0.0
2014-Aug-08 04:31N 35°37' E 139°58'4 4.1
2014-Aug-08 03:33N 35°33' E 139°56'1110.6
2014-Aug-08 02:33N 35°25' E 139°47'10 9.5
2014-Aug-08 01:33N 35°16' E 139°47'1010.1
2014-Aug-08 00:34N 35°06' E 139°45'1110.4
2014-Aug-07 23:33N 34°59' E 139°35'1111.2
2014-Aug-07 22:33N 34°53' E 139°24'224 8.6
2014-Aug-06 20:33N 33°59' E 135°00'10 9.6
2014-Aug-06 19:33N 34°09' E 134°59'9 9.4
2014-Aug-06 18:33N 34°18' E 134°59'9 9.3
2014-Aug-06 17:33N 34°27' E 135°01'9 9.3
2014-Aug-06 16:33N 34°36' E 135°02'12210.1
2014-Aug-06 04:25N 33°57' E 132°42'  
Track history (hours):
 
Tides and Currents Weather Stations Pressure Air Temp Water Temp Dewpoint Dewpoint Depression Visibility Wind Speed Wind Dir Waves Ship Positions

Ty Lotus

Last reported at 2014-Aug-15 10:29 UTC. Time now 2014-Aug-23 17:24 UTC.
Position N 34°37' E 134°58'.
Warning: this ship's position is 8 days out of date.

Length 82 m; draft 5 m.

Type: Cargo ship. MMSI: 440324000.

Date/timePositionNaut miles runAvg speedWind from/ knotsBaromVisibWave heightAir tempDewpointWater temp
2014-Aug-15 10:29N 34°37' E 134°58'7 8.0
2014-Aug-15 09:33N 34°36' E 135°07'8 7.6
2014-Aug-15 08:33N 34°40' E 135°15'3 2.5
2014-Aug-15 07:30N 34°42' E 135°13'0 0.0
2014-Aug-15 06:18N 34°42' E 135°13'0 0.0
2014-Aug-15 05:30N 34°42' E 135°13'0 0.0
2014-Aug-15 04:18N 34°42' E 135°13'0 0.0
2014-Aug-15 03:24N 34°42' E 135°13'0 0.0
2014-Aug-15 02:30N 34°42' E 135°13'0 0.0
2014-Aug-15 01:30N 34°42' E 135°13'0 0.0
2014-Aug-15 00:18N 34°42' E 135°13'0 0.0
2014-Aug-14 23:30N 34°42' E 135°13'0 0.0
2014-Aug-14 22:30N 34°42' E 135°13'5 4.9
2014-Aug-14 21:34N 34°38' E 135°17'1 1.4
2014-Aug-14 20:30N 34°39' E 135°18'0 0.0
2014-Aug-14 19:30N 34°39' E 135°18'0 0.1
2014-Aug-14 18:30N 34°39' E 135°18'0 0.0
2014-Aug-14 17:30N 34°39' E 135°18'0 0.0
2014-Aug-14 16:30N 34°39' E 135°18'0 0.0
2014-Aug-14 15:12N 34°39' E 135°18'0 0.1
2014-Aug-14 14:30N 34°39' E 135°18'0 0.0
2014-Aug-14 13:24N 34°39' E 135°18'0 0.1
2014-Aug-14 12:30N 34°39' E 135°18'0 0.1
2014-Aug-14 11:18N 34°39' E 135°18'0 0.0
2014-Aug-14 10:30N 34°39' E 135°18'0 0.0
2014-Aug-14 09:30N 34°39' E 135°18'0 0.0
2014-Aug-14 08:30N 34°39' E 135°18'0 0.0
2014-Aug-14 07:30N 34°39' E 135°18'0 0.0
2014-Aug-14 06:30N 34°39' E 135°18'2 2.5
2014-Aug-14 05:33N 34°37' E 135°20'4 3.3
2014-Aug-14 04:18N 34°38' E 135°25'0 0.0
2014-Aug-14 03:30N 34°38' E 135°25'0 0.0
2014-Aug-14 01:18N 34°38' E 135°25'0 0.0
2014-Aug-14 00:24N 34°38' E 135°25'0 0.0
2014-Aug-13 23:24N 34°38' E 135°25'0 0.0
2014-Aug-13 22:24N 34°38' E 135°25'3 3.0
2014-Aug-13 21:33N 34°37' E 135°22'9 8.5
2014-Aug-13 20:33N 34°31' E 135°16'9 8.6
2014-Aug-13 19:33N 34°24' E 135°09'  
2014-Aug-10 04:33N 35°40' E 139°58'0 0.0
2014-Aug-10 03:30N 35°40' E 139°58'0 0.0
2014-Aug-10 02:27N 35°40' E 139°58'0 0.0
2014-Aug-10 01:30N 35°40' E 139°58'0 0.0
2014-Aug-10 00:33N 35°40' E 139°58'0 0.0
2014-Aug-09 23:33N 35°40' E 139°58'0 0.0
2014-Aug-09 22:30N 35°40' E 139°58'0 0.0
2014-Aug-09 21:33N 35°40' E 139°58'0 0.0
2014-Aug-09 20:33N 35°40' E 139°58'0 0.0
2014-Aug-09 19:27N 35°40' E 139°58'0 0.0
2014-Aug-09 18:33N 35°40' E 139°58'0 0.0
2014-Aug-09 17:21N 35°40' E 139°58'0 0.0
2014-Aug-09 16:33N 35°40' E 139°58'0 0.0
2014-Aug-09 15:25N 35°40' E 139°58'0 0.0
2014-Aug-09 14:31N 35°40' E 139°58'0 0.0
2014-Aug-09 13:22N 35°40' E 139°58'0 0.0
2014-Aug-09 12:28N 35°40' E 139°58'0 0.0
2014-Aug-09 11:25N 35°40' E 139°58'0 0.0
2014-Aug-09 10:25N 35°40' E 139°58'0 0.0
2014-Aug-09 09:31N 35°40' E 139°58'0 0.0
2014-Aug-09 08:28N 35°40' E 139°58'0 0.0
2014-Aug-09 07:31N 35°40' E 139°58'0 0.0
2014-Aug-09 06:32N 35°40' E 139°58'0 0.4
2014-Aug-09 05:34N 35°40' E 139°59'4 3.5
2014-Aug-09 04:27N 35°36' E 139°58'0 0.0
2014-Aug-09 03:33N 35°36' E 139°58'0 0.0
2014-Aug-09 02:33N 35°36' E 139°58'0 0.0
2014-Aug-09 01:33N 35°36' E 139°58'0 0.0
2014-Aug-09 00:33N 35°36' E 139°58'0 0.0
2014-Aug-08 23:33N 35°36' E 139°58'0 0.0
2014-Aug-08 22:33N 35°36' E 139°58'0 0.0
2014-Aug-08 21:33N 35°36' E 139°58'0 0.0
2014-Aug-08 20:33N 35°36' E 139°58'0 0.0
2014-Aug-08 19:27N 35°36' E 139°58'0 0.0
2014-Aug-08 18:30N 35°36' E 139°58'0 0.1
2014-Aug-08 17:33N 35°36' E 139°58'0 0.0
2014-Aug-08 16:30N 35°36' E 139°58'0 0.0
2014-Aug-08 15:21N 35°36' E 139°58'0 0.1
2014-Aug-08 14:30N 35°36' E 139°58'0 0.0
2014-Aug-08 13:33N 35°36' E 139°58'0 0.0
2014-Aug-08 12:33N 35°36' E 139°58'0 0.0
2014-Aug-08 11:24N 35°36' E 139°58'0 0.0
2014-Aug-08 10:27N 35°36' E 139°58'0 0.0
2014-Aug-08 09:30N 35°36' E 139°58'0 0.0
2014-Aug-08 08:33N 35°37' E 139°58'0 0.0
2014-Aug-08 07:24N 35°37' E 139°58'0 0.1
2014-Aug-08 06:27N 35°37' E 139°58'0 0.0
2014-Aug-08 05:30N 35°37' E 139°58'0 0.0
2014-Aug-08 04:31N 35°37' E 139°58'4 4.1
2014-Aug-08 03:33N 35°33' E 139°56'1110.6
2014-Aug-08 02:33N 35°25' E 139°47'10 9.5
2014-Aug-08 01:33N 35°16' E 139°47'1010.1
2014-Aug-08 00:34N 35°06' E 139°45'1110.4
2014-Aug-07 23:33N 34°59' E 139°35'1111.2
2014-Aug-07 22:33N 34°53' E 139°24'224 8.6
2014-Aug-06 20:33N 33°59' E 135°00'10 9.6
2014-Aug-06 19:33N 34°09' E 134°59'9 9.4
2014-Aug-06 18:33N 34°18' E 134°59'9 9.3
2014-Aug-06 17:33N 34°27' E 135°01'9 9.3
2014-Aug-06 16:33N 34°36' E 135°02'12210.1
2014-Aug-06 04:25N 33°57' E 132°42'  

Dump ship's entire track history